createdAt,value
2023-01-08T00:03:18.372Z,7.05
2023-01-08T00:08:19.755Z,7.06
2023-01-08T00:13:21.173Z,7.09
2023-01-08T00:18:24.703Z,7.12
2023-01-08T00:23:26.344Z,7.17
2023-01-08T00:28:27.761Z,7.22
2023-01-08T00:33:29.300Z,7.30
2023-01-08T00:38:30.709Z,7.38
2023-01-08T00:43:32.345Z,7.44
2023-01-08T00:48:38.438Z,7.43
2023-01-08T00:53:39.773Z,7.36
2023-01-08T00:58:41.115Z,7.29
2023-01-08T01:03:42.676Z,7.29
2023-01-08T01:08:44.375Z,7.34
2023-01-08T01:13:45.809Z,7.36
2023-01-08T01:18:47.254Z,7.34
2023-01-08T01:23:48.833Z,7.34
2023-01-08T01:28:51.018Z,7.35
2023-01-08T01:33:52.358Z,7.37
2023-01-08T01:38:54.791Z,7.34
2023-01-08T01:43:57.446Z,7.32
2023-01-08T01:49:00.556Z,7.31
2023-01-08T01:54:03.299Z,7.28
2023-01-08T01:59:04.810Z,7.25
2023-01-08T02:04:06.247Z,7.18
2023-01-08T02:09:26.533Z,7.12
2023-01-08T02:14:33.023Z,7.06
2023-01-08T02:19:34.366Z,7.02
2023-01-08T02:24:56.142Z,6.98
2023-01-08T02:29:58.087Z,6.89
2023-01-08T02:34:59.473Z,6.81
2023-01-08T02:40:03.814Z,6.76
2023-01-08T02:45:14.413Z,6.71
2023-01-08T02:50:18.865Z,6.68
2023-01-08T02:55:22.083Z,6.68
2023-01-08T03:00:23.690Z,6.71
2023-01-08T03:05:26.330Z,6.77
2023-01-08T03:10:29.613Z,6.79
2023-01-08T03:15:34.072Z,6.78
2023-01-08T03:20:37.432Z,6.77
2023-01-08T03:25:41.414Z,6.82
2023-01-08T03:30:43.745Z,6.85
2023-01-08T03:35:47.857Z,6.88
2023-01-08T03:40:52.341Z,6.90
2023-01-08T03:45:56.155Z,6.99
2023-01-08T03:50:57.558Z,7.11
2023-01-08T03:55:58.874Z,7.22
2023-01-08T04:01:00.797Z,7.35
2023-01-08T04:06:02.121Z,7.49
2023-01-08T04:11:03.433Z,7.53
2023-01-08T04:16:05.067Z,7.52
2023-01-08T04:21:06.458Z,7.49
2023-01-08T04:26:08.251Z,7.51
2023-01-08T04:31:09.853Z,7.55
2023-01-08T04:36:11.309Z,7.52
2023-01-08T04:41:12.722Z,7.44
2023-01-08T04:46:14.111Z,7.45
2023-01-08T04:51:15.487Z,7.53
2023-01-08T04:56:16.837Z,7.58
2023-01-08T05:01:19.512Z,7.58
2023-01-08T05:06:20.893Z,7.51
2023-01-08T05:11:22.339Z,7.43
2023-01-08T05:16:23.679Z,7.39
2023-01-08T05:21:25.260Z,7.39
2023-01-08T05:26:26.579Z,7.37
2023-01-08T05:31:27.951Z,7.38
2023-01-08T05:36:30.948Z,7.40
2023-01-08T05:41:32.286Z,7.38
2023-01-08T05:46:33.638Z,7.36
2023-01-08T05:51:35.029Z,7.33
2023-01-08T05:56:36.384Z,7.35
2023-01-08T06:01:37.792Z,7.40
2023-01-08T06:06:39.204Z,7.42
2023-01-08T06:11:40.531Z,7.43
2023-01-08T06:16:43.165Z,7.45
2023-01-08T06:21:44.629Z,7.44
2023-01-08T06:26:46.014Z,7.43
2023-01-08T06:31:47.313Z,7.36
2023-01-08T06:36:48.687Z,7.32
2023-01-08T06:41:50.009Z,7.33
2023-01-08T06:46:51.546Z,7.43
2023-01-08T06:51:52.920Z,7.56
2023-01-08T06:56:54.658Z,7.70
2023-01-08T07:01:56.141Z,7.79
2023-01-08T07:06:57.505Z,7.85
2023-01-08T07:11:58.831Z,7.90
2023-01-08T07:17:00.184Z,7.92
2023-01-08T07:22:01.600Z,7.94
2023-01-08T07:27:02.971Z,7.99
2023-01-08T07:32:04.445Z,8.10
2023-01-08T07:37:05.778Z,8.21
2023-01-08T07:42:07.161Z,8.31
2023-01-08T07:47:08.575Z,8.40
2023-01-08T07:52:09.899Z,8.51
2023-01-08T07:57:11.192Z,8.54
2023-01-08T08:02:12.624Z,8.55
2023-01-08T08:07:14.231Z,8.54
2023-01-08T08:12:15.689Z,8.61
2023-01-08T08:17:17.100Z,8.66
2023-01-08T08:22:18.625Z,8.73
2023-01-08T08:27:20.006Z,8.79
2023-01-08T08:32:21.412Z,8.81
2023-01-08T08:37:22.721Z,8.84
2023-01-08T08:42:24.026Z,8.87
2023-01-08T08:47:25.396Z,8.88
2023-01-08T08:52:26.722Z,8.95
2023-01-08T08:57:28.052Z,9.04
2023-01-08T09:02:29.594Z,9.10
2023-01-08T09:07:31.018Z,9.14
2023-01-08T09:12:32.373Z,9.22
2023-01-08T09:17:34.055Z,9.27
2023-01-08T09:22:35.387Z,9.32
2023-01-08T09:27:36.772Z,9.39
2023-01-08T09:32:38.306Z,9.47
2023-01-08T09:37:39.720Z,9.51
2023-01-08T09:42:41.118Z,9.58
2023-01-08T09:47:43.531Z,9.65
2023-01-08T09:52:45.761Z,9.66
2023-01-08T09:57:47.943Z,9.65
2023-01-08T10:02:49.653Z,9.66
2023-01-08T10:07:51.029Z,9.68
2023-01-08T10:12:53.173Z,9.78
2023-01-08T10:17:58.125Z,9.86
2023-01-08T10:23:13.206Z,9.94
2023-01-08T10:28:19.411Z,9.97
2023-01-08T10:33:25.117Z,9.98
2023-01-08T10:38:52.874Z,10.04
2023-01-08T10:44:02.029Z,10.15
2023-01-08T10:49:05.132Z,10.24
2023-01-08T10:54:26.340Z,10.26
2023-01-08T10:59:27.849Z,10.24
2023-01-08T11:04:32.450Z,10.30
2023-01-08T11:09:38.821Z,10.34
2023-01-08T11:14:40.271Z,10.32
2023-01-08T11:19:41.605Z,10.36
2023-01-08T11:24:43.330Z,10.41
2023-01-08T11:29:45.573Z,10.48
2023-01-08T11:34:56.082Z,10.51
2023-01-08T11:39:57.720Z,10.48
2023-01-08T11:44:59.224Z,10.45
2023-01-08T11:50:09.901Z,10.43
2023-01-08T11:55:11.284Z,10.41
2023-01-08T12:00:15.645Z,10.38
2023-01-08T12:05:25.753Z,10.45
2023-01-08T12:10:32.437Z,10.50
2023-01-08T12:15:48.747Z,10.55
2023-01-08T12:20:50.033Z,10.53
2023-01-08T12:26:12.735Z,10.47
2023-01-08T12:31:32.954Z,10.47
2023-01-08T12:36:37.969Z,10.49
2023-01-08T12:41:39.984Z,10.51
2023-01-08T12:46:43.203Z,10.51
2023-01-08T12:52:14.083Z,10.48
2023-01-08T12:57:22.127Z,10.47
2023-01-08T13:02:30.018Z,10.55
2023-01-08T13:07:38.709Z,10.53
2023-01-08T13:12:40.847Z,10.46
2023-01-08T13:17:47.970Z,10.45
2023-01-08T13:22:56.701Z,10.47
2023-01-08T13:27:58.232Z,10.47
2023-01-08T13:32:59.789Z,10.47
2023-01-08T13:38:10.290Z,10.46
2023-01-08T13:43:14.662Z,10.40
2023-01-08T13:48:23.491Z,10.33
2023-01-08T13:53:25.042Z,10.20
2023-01-08T13:58:30.173Z,10.10
2023-01-08T14:03:35.586Z,10.06
2023-01-08T14:08:37.200Z,10.00
2023-01-08T14:13:38.569Z,9.96
2023-01-08T14:18:43.851Z,9.87
2023-01-08T14:23:46.443Z,9.80
2023-01-08T14:28:51.532Z,9.74
2023-01-08T14:33:56.963Z,9.70
2023-01-08T14:38:58.314Z,9.63
2023-01-08T14:43:59.677Z,9.59
2023-01-08T14:49:01.039Z,9.56
2023-01-08T14:54:04.652Z,9.54
2023-01-08T14:59:07.502Z,9.48
2023-01-08T15:04:19.021Z,9.42
2023-01-08T15:09:20.335Z,9.38
2023-01-08T15:14:25.388Z,9.35
2023-01-08T15:19:28.643Z,9.34
2023-01-08T15:24:31.906Z,9.34
2023-01-08T15:29:33.405Z,9.31
2023-01-08T15:34:34.906Z,9.21
2023-01-08T15:39:36.298Z,9.19
2023-01-08T15:44:38.862Z,9.11
2023-01-08T15:49:40.699Z,9.10
2023-01-08T15:54:42.538Z,9.07
2023-01-08T15:59:43.881Z,9.03
2023-01-08T16:04:46.246Z,8.96
2023-01-08T16:09:47.779Z,8.91
2023-01-08T16:14:49.121Z,8.87
2023-01-08T16:19:50.507Z,8.86
2023-01-08T16:24:53.555Z,8.81
2023-01-08T16:29:55.521Z,8.77
2023-01-08T16:34:57.229Z,8.76
2023-01-08T16:39:58.612Z,8.73
2023-01-08T16:45:01.896Z,8.70
2023-01-08T16:50:03.382Z,8.73
2023-01-08T16:55:06.457Z,8.77
2023-01-08T17:00:09.083Z,8.69
2023-01-08T17:05:10.462Z,8.58
2023-01-08T17:10:12.924Z,8.47
2023-01-08T17:15:15.732Z,8.43
2023-01-08T17:20:19.667Z,8.47
2023-01-08T17:25:22.520Z,8.53
2023-01-08T17:30:23.957Z,8.59
2023-01-08T17:35:25.574Z,8.59
2023-01-08T17:40:27.507Z,8.60
2023-01-08T17:45:29.024Z,8.56
2023-01-08T17:50:30.399Z,8.45
2023-01-08T17:55:31.875Z,8.36
2023-01-08T18:00:33.236Z,8.30
2023-01-08T18:05:34.928Z,8.25
2023-01-08T18:10:37.049Z,8.18
2023-01-08T18:15:38.528Z,8.10
2023-01-08T18:20:40.790Z,8.03
2023-01-08T18:25:42.436Z,7.94
2023-01-08T18:30:46.401Z,7.83
2023-01-08T18:35:48.304Z,7.72
2023-01-08T18:40:49.670Z,7.63
2023-01-08T18:45:51.257Z,7.58
2023-01-08T18:50:52.802Z,7.54
2023-01-08T18:55:54.671Z,7.52
2023-01-08T19:01:02.033Z,7.49
2023-01-08T19:06:04.245Z,7.50
2023-01-08T19:11:06.525Z,7.52
2023-01-08T19:16:09.713Z,7.53
2023-01-08T19:21:13.852Z,7.56
2023-01-08T19:26:15.394Z,7.58
2023-01-08T19:31:17.767Z,7.62
2023-01-08T19:36:20.992Z,7.68
2023-01-08T19:41:41.153Z,7.67
2023-01-08T19:46:42.536Z,7.64
2023-01-08T19:51:43.910Z,7.66
2023-01-08T19:56:45.498Z,7.70
2023-01-08T20:01:47.074Z,7.73
2023-01-08T20:06:48.687Z,7.73
2023-01-08T20:11:50.055Z,7.77
2023-01-08T20:16:51.462Z,7.82
2023-01-08T20:21:52.886Z,7.84
2023-01-08T20:26:54.241Z,7.86
2023-01-08T20:31:59.217Z,7.80
2023-01-08T20:37:00.641Z,7.75
2023-01-08T20:42:04.598Z,7.72
2023-01-08T20:47:06.298Z,7.68
2023-01-08T20:52:07.797Z,7.60
2023-01-08T20:57:09.555Z,7.54
2023-01-08T21:02:11.392Z,7.45
2023-01-08T21:07:12.832Z,7.43
2023-01-08T21:12:15.111Z,7.42
2023-01-08T21:17:16.489Z,7.39
2023-01-08T21:22:17.861Z,7.39
2023-01-08T21:27:19.297Z,7.33
2023-01-08T21:32:20.815Z,7.29
2023-01-08T21:37:22.201Z,7.25
2023-01-08T21:42:42.348Z,7.21
2023-01-08T21:47:43.761Z,7.17
2023-01-08T21:53:04.021Z,7.19
2023-01-08T21:58:05.425Z,7.19
2023-01-08T22:03:06.843Z,7.28
2023-01-08T22:08:09.245Z,7.36
2023-01-08T22:13:11.435Z,7.42
2023-01-08T22:18:12.841Z,7.43
2023-01-08T22:23:14.197Z,7.44
2023-01-08T22:28:15.551Z,7.46
2023-01-08T22:33:16.927Z,7.52
2023-01-08T22:38:18.263Z,7.55
2023-01-08T22:43:20.246Z,7.58
2023-01-08T22:48:22.796Z,7.58
2023-01-08T22:53:24.323Z,7.61
2023-01-08T22:58:27.582Z,7.64
2023-01-08T23:03:29.411Z,7.62
2023-01-08T23:08:30.798Z,7.60
2023-01-08T23:13:32.394Z,7.56
2023-01-08T23:18:35.237Z,7.46
2023-01-08T23:23:36.650Z,7.42
2023-01-08T23:28:38.359Z,7.37
2023-01-08T23:33:39.707Z,7.36
2023-01-08T23:38:41.065Z,7.35
2023-01-08T23:43:43.367Z,7.35
2023-01-08T23:48:44.732Z,7.30
2023-01-08T23:53:46.126Z,7.31
2023-01-08T23:58:48.217Z,7.31
